AUA364 LFPG-LOWW
Flight info
| Callsign | AUA364 |
|---|---|
| Flight time | 1h 22m |
| Altitude | 35000 |
| Route | LANVI DCT LUPEN UM164 UTABA L607 MOMUK DCT BERAS T23 BIRGI DCT NEMAL NEMAL2W |
| Aircraft | A320/M-SDE3FGHIRWY/LB1 |
Departure
| Time | 2026-04-20 14:19 |
|---|---|
| Airport | Charles de Gaulle International Airport (LFPG) |
Arrival
| Time | 2026-04-20 15:41 |
|---|---|
| Airport | Vienna International Airport (LOWW) |
| Time | Latitude | Longitude | Altitude | Speed | Heading |
|---|---|---|---|---|---|
| 2026-04-20 13:58 | 49.01710 | 2.54088 | 360 ft | 0 kts | 209° |
| 2026-04-20 14:13 | 49.01726 | 2.54101 | 362 ft | 4 kts | 205° |
| 2026-04-20 14:13 | 49.01750 | 2.54118 | 361 ft | 4 kts | 204° |
| 2026-04-20 14:13 | 49.01774 | 2.54135 | 362 ft | 4 kts | 208° |
| 2026-04-20 14:13 | 49.01797 | 2.54156 | 359 ft | 4 kts | 221° |
| 2026-04-20 14:14 | 49.01813 | 2.54186 | 364 ft | 4 kts | 259° |
| 2026-04-20 14:14 | 49.01814 | 2.54194 | 364 ft | 0 kts | 265° |
| 2026-04-20 14:16 | 49.01812 | 2.54170 | 364 ft | 10 kts | 265° |
| 2026-04-20 14:16 | 49.01804 | 2.54018 | 354 ft | 15 kts | 265° |
| 2026-04-20 14:16 | 49.01796 | 2.53867 | 354 ft | 14 kts | 265° |
| 2026-04-20 14:16 | 49.01785 | 2.53667 | 359 ft | 30 kts | 265° |
| 2026-04-20 14:17 | 49.01765 | 2.53324 | 354 ft | 33 kts | 264° |
| 2026-04-20 14:17 | 49.01747 | 2.52964 | 354 ft | 34 kts | 263° |
| 2026-04-20 14:17 | 49.01778 | 2.52759 | 357 ft | 17 kts | 336° |
| 2026-04-20 14:17 | 49.01893 | 2.52745 | 355 ft | 17 kts | 354° |
| 2026-04-20 14:18 | 49.02027 | 2.52726 | 360 ft | 22 kts | 356° |
| 2026-04-20 14:18 | 49.02133 | 2.52721 | 361 ft | 6 kts | 27° |
| 2026-04-20 14:18 | 49.02145 | 2.52812 | 356 ft | 18 kts | 85° |
| 2026-04-20 14:18 | 49.02172 | 2.53331 | 354 ft | 84 kts | 86° |
| 2026-04-20 14:19 | 49.02242 | 2.54529 | 355 ft | 141 kts | 85° |
| 2026-04-20 14:19 | 49.02326 | 2.56134 | 807 ft | 150 kts | 84° |
| 2026-04-20 14:19 | 49.02402 | 2.57713 | 1580 ft | 149 kts | 83° |
| 2026-04-20 14:19 | 49.02485 | 2.59298 | 2284 ft | 154 kts | 82° |
| 2026-04-20 14:20 | 49.02581 | 2.61034 | 2686 ft | 176 kts | 81° |
| 2026-04-20 14:20 | 49.02693 | 2.63006 | 3020 ft | 198 kts | 82° |
| 2026-04-20 14:20 | 49.02815 | 2.65232 | 3412 ft | 223 kts | 83° |
| 2026-04-20 14:20 | 49.02947 | 2.67718 | 3912 ft | 246 kts | 83° |
| 2026-04-20 14:21 | 49.03084 | 2.70360 | 4755 ft | 254 kts | 84° |
| 2026-04-20 14:21 | 49.03221 | 2.73069 | 5706 ft | 258 kts | 83° |
| 2026-04-20 14:21 | 49.03357 | 2.75831 | 6600 ft | 265 kts | 84° |
| 2026-04-20 14:21 | 49.03493 | 2.78663 | 7411 ft | 272 kts | 84° |
| 2026-04-20 14:22 | 49.03632 | 2.81572 | 8230 ft | 278 kts | 85° |
| 2026-04-20 14:22 | 49.03772 | 2.84555 | 9030 ft | 286 kts | 83° |
| 2026-04-20 14:22 | 49.03915 | 2.87605 | 9865 ft | 292 kts | 84° |
| 2026-04-20 14:22 | 49.04060 | 2.90733 | 10496 ft | 305 kts | 83° |
| 2026-04-20 14:23 | 49.04167 | 2.94044 | 10777 ft | 330 kts | 91° |
| 2026-04-20 14:23 | 49.03735 | 2.97581 | 11238 ft | 347 kts | 103° |
| 2026-04-20 14:23 | 49.03125 | 3.01179 | 11906 ft | 354 kts | 103° |
| 2026-04-20 14:23 | 49.02502 | 3.04844 | 12617 ft | 361 kts | 103° |
| 2026-04-20 14:24 | 49.01863 | 3.08575 | 13341 ft | 367 kts | 103° |
| 2026-04-20 14:24 | 49.01210 | 3.12381 | 13993 ft | 375 kts | 103° |
| 2026-04-20 14:24 | 49.00544 | 3.16255 | 14600 ft | 381 kts | 103° |
| 2026-04-20 14:24 | 48.99865 | 3.20190 | 15224 ft | 387 kts | 103° |
| 2026-04-20 14:25 | 48.99176 | 3.24169 | 15869 ft | 391 kts | 103° |
| 2026-04-20 14:25 | 48.98476 | 3.28204 | 16499 ft | 396 kts | 103° |
| 2026-04-20 14:25 | 48.97769 | 3.32281 | 17117 ft | 401 kts | 103° |
| 2026-04-20 14:25 | 48.97055 | 3.36405 | 17734 ft | 406 kts | 103° |
| 2026-04-20 14:26 | 48.96329 | 3.40582 | 18351 ft | 411 kts | 103° |
| 2026-04-20 14:26 | 48.95591 | 3.44811 | 18888 ft | 416 kts | 103° |
| 2026-04-20 14:26 | 48.94842 | 3.49077 | 19407 ft | 421 kts | 104° |
| 2026-04-20 14:26 | 48.94093 | 3.53413 | 19902 ft | 426 kts | 101° |
| 2026-04-20 14:27 | 48.93650 | 3.57824 | 20382 ft | 430 kts | 92° |
| 2026-04-20 14:27 | 48.93416 | 3.62380 | 20897 ft | 434 kts | 92° |
| 2026-04-20 14:27 | 48.93179 | 3.66983 | 21410 ft | 440 kts | 92° |
| 2026-04-20 14:27 | 48.92934 | 3.71644 | 21927 ft | 445 kts | 92° |
| 2026-04-20 14:28 | 48.92683 | 3.76353 | 22438 ft | 450 kts | 92° |
| 2026-04-20 14:28 | 48.92425 | 3.81120 | 22947 ft | 454 kts | 92° |
| 2026-04-20 14:28 | 48.92163 | 3.85935 | 23435 ft | 459 kts | 92° |
| 2026-04-20 14:28 | 48.91897 | 3.90799 | 23879 ft | 464 kts | 92° |
| 2026-04-20 14:29 | 48.91627 | 3.95699 | 24304 ft | 467 kts | 92° |
| 2026-04-20 14:29 | 48.91351 | 4.00636 | 24740 ft | 469 kts | 92° |
| 2026-04-20 14:29 | 48.91070 | 4.05588 | 25171 ft | 472 kts | 93° |
| 2026-04-20 14:29 | 48.90786 | 4.10561 | 25596 ft | 474 kts | 93° |
| 2026-04-20 14:30 | 48.90497 | 4.15563 | 26013 ft | 476 kts | 94° |
| 2026-04-20 14:30 | 48.89953 | 4.20537 | 26413 ft | 480 kts | 103° |
| 2026-04-20 14:30 | 48.88933 | 4.25371 | 26808 ft | 482 kts | 113° |
| 2026-04-20 14:30 | 48.87458 | 4.29945 | 27197 ft | 483 kts | 121° |
| 2026-04-20 14:31 | 48.85815 | 4.34400 | 27589 ft | 485 kts | 121° |
| 2026-04-20 14:31 | 48.84167 | 4.38883 | 27996 ft | 487 kts | 120° |
| 2026-04-20 14:31 | 48.82516 | 4.43381 | 28374 ft | 489 kts | 120° |
| 2026-04-20 14:31 | 48.80862 | 4.47891 | 28751 ft | 491 kts | 120° |
| 2026-04-20 14:32 | 48.79200 | 4.52427 | 29115 ft | 493 kts | 120° |
| 2026-04-20 14:32 | 48.77552 | 4.56914 | 29469 ft | 494 kts | 120° |
| 2026-04-20 14:32 | 48.75870 | 4.61471 | 29816 ft | 496 kts | 121° |
| 2026-04-20 14:32 | 48.74181 | 4.66035 | 30147 ft | 498 kts | 121° |
| 2026-04-20 14:33 | 48.72478 | 4.70627 | 30420 ft | 500 kts | 121° |
| 2026-04-20 14:33 | 48.70775 | 4.75215 | 30683 ft | 501 kts | 120° |
| 2026-04-20 14:33 | 48.69062 | 4.79825 | 30957 ft | 503 kts | 120° |
| 2026-04-20 14:33 | 48.67344 | 4.84444 | 31184 ft | 505 kts | 120° |
| 2026-04-20 14:34 | 48.65615 | 4.89081 | 31415 ft | 507 kts | 120° |
| 2026-04-20 14:34 | 48.63880 | 4.93718 | 31684 ft | 507 kts | 120° |
| 2026-04-20 14:34 | 48.62143 | 4.98344 | 32018 ft | 506 kts | 120° |
| 2026-04-20 14:34 | 48.60407 | 5.02965 | 32356 ft | 505 kts | 120° |
| 2026-04-20 14:35 | 48.58678 | 5.07566 | 32698 ft | 504 kts | 120° |
| 2026-04-20 14:35 | 48.56947 | 5.12165 | 33036 ft | 503 kts | 120° |
| 2026-04-20 14:35 | 48.55227 | 5.16741 | 33367 ft | 502 kts | 120° |
| 2026-04-20 14:35 | 48.53502 | 5.21312 | 33707 ft | 501 kts | 121° |
| 2026-04-20 14:36 | 48.51777 | 5.25872 | 34056 ft | 498 kts | 121° |
| 2026-04-20 14:36 | 48.50062 | 5.30394 | 34394 ft | 496 kts | 121° |
| 2026-04-20 14:36 | 48.48347 | 5.34903 | 34680 ft | 495 kts | 121° |
| 2026-04-20 14:36 | 48.46636 | 5.39398 | 34951 ft | 494 kts | 121° |
| 2026-04-20 14:37 | 48.44922 | 5.43895 | 35089 ft | 494 kts | 121° |
| 2026-04-20 14:37 | 48.43220 | 5.48358 | 35111 ft | 491 kts | 121° |
| 2026-04-20 14:37 | 48.39850 | 5.57183 | 35105 ft | 489 kts | 121° |
| 2026-04-20 14:38 | 48.36444 | 5.66033 | 35107 ft | 489 kts | 121° |
| 2026-04-20 14:38 | 48.33291 | 5.75099 | 35106 ft | 490 kts | 110° |
| 2026-04-20 14:39 | 48.31864 | 5.85045 | 35107 ft | 487 kts | 91° |
| 2026-04-20 14:39 | 48.32289 | 5.95136 | 35105 ft | 483 kts | 81° |
| 2026-04-20 14:40 | 48.33007 | 6.05182 | 35117 ft | 484 kts | 81° |
| 2026-04-20 14:40 | 48.33686 | 6.15258 | 35100 ft | 485 kts | 81° |
| 2026-04-20 14:41 | 48.34374 | 6.25348 | 35093 ft | 486 kts | 81° |
| 2026-04-20 14:41 | 48.35062 | 6.35450 | 35089 ft | 486 kts | 81° |
| 2026-04-20 14:42 | 48.35737 | 6.45560 | 35085 ft | 486 kts | 81° |
| 2026-04-20 14:42 | 48.36397 | 6.55608 | 35083 ft | 486 kts | 81° |
| 2026-04-20 14:43 | 48.37050 | 6.65729 | 35085 ft | 487 kts | 81° |
| 2026-04-20 14:43 | 48.37705 | 6.75861 | 35084 ft | 487 kts | 81° |
| 2026-04-20 14:44 | 48.38356 | 6.85998 | 35085 ft | 487 kts | 81° |
| 2026-04-20 14:44 | 48.38995 | 6.96125 | 35088 ft | 486 kts | 81° |
| 2026-04-20 14:45 | 48.39620 | 7.06253 | 35092 ft | 486 kts | 82° |
| 2026-04-20 14:45 | 48.40229 | 7.16375 | 35090 ft | 486 kts | 82° |
| 2026-04-20 14:46 | 48.40828 | 7.26502 | 35091 ft | 486 kts | 82° |
| 2026-04-20 14:46 | 48.41423 | 7.36617 | 35105 ft | 485 kts | 81° |
| 2026-04-20 14:47 | 48.42016 | 7.46757 | 35092 ft | 487 kts | 81° |
| 2026-04-20 14:48 | 48.42874 | 7.61969 | 35067 ft | 489 kts | 82° |
| 2026-04-20 14:48 | 48.43364 | 7.72196 | 35060 ft | 492 kts | 87° |
| 2026-04-20 14:49 | 48.42637 | 7.82492 | 35073 ft | 496 kts | 96° |
| 2026-04-20 14:49 | 48.41827 | 7.92805 | 35073 ft | 496 kts | 93° |
| 2026-04-20 14:50 | 48.41224 | 8.03151 | 35079 ft | 496 kts | 92° |
| 2026-04-20 14:50 | 48.40618 | 8.13504 | 35080 ft | 497 kts | 93° |
| 2026-04-20 14:51 | 48.39930 | 8.23848 | 35086 ft | 497 kts | 93° |
| 2026-04-20 14:51 | 48.39331 | 8.32352 | 35081 ft | 497 kts | 94° |
| 2026-04-20 14:52 | 48.38599 | 8.42689 | 35089 ft | 497 kts | 93° |
| 2026-04-20 14:52 | 48.37874 | 8.53021 | 35089 ft | 496 kts | 94° |
| 2026-04-20 14:53 | 48.37152 | 8.63348 | 35092 ft | 497 kts | 93° |
| 2026-04-20 14:53 | 48.36413 | 8.73670 | 35094 ft | 496 kts | 94° |
| 2026-04-20 14:54 | 48.35661 | 8.83984 | 35086 ft | 496 kts | 94° |
| 2026-04-20 14:54 | 48.34901 | 8.94288 | 35090 ft | 496 kts | 94° |
| 2026-04-20 14:55 | 48.34128 | 9.04592 | 35089 ft | 496 kts | 94° |
| 2026-04-20 14:55 | 48.33349 | 9.14888 | 35082 ft | 496 kts | 94° |
| 2026-04-20 14:56 | 48.32570 | 9.25132 | 35072 ft | 497 kts | 94° |
| 2026-04-20 14:56 | 48.31772 | 9.35445 | 35066 ft | 497 kts | 94° |
| 2026-04-20 14:57 | 48.30967 | 9.45763 | 35063 ft | 497 kts | 94° |
| 2026-04-20 14:57 | 48.30153 | 9.56089 | 35060 ft | 498 kts | 94° |
| 2026-04-20 14:58 | 48.29321 | 9.66412 | 35050 ft | 499 kts | 94° |
| 2026-04-20 14:58 | 48.28480 | 9.76750 | 35044 ft | 499 kts | 94° |
| 2026-04-20 14:59 | 48.27634 | 9.87084 | 35042 ft | 499 kts | 95° |
| 2026-04-20 14:59 | 48.26774 | 9.97422 | 35044 ft | 499 kts | 95° |
| 2026-04-20 15:00 | 48.25903 | 10.07751 | 35041 ft | 499 kts | 95° |
| 2026-04-20 15:00 | 48.25035 | 10.18083 | 35050 ft | 499 kts | 95° |
| 2026-04-20 15:01 | 48.24150 | 10.28418 | 35056 ft | 499 kts | 95° |
| 2026-04-20 15:01 | 48.23265 | 10.38683 | 35068 ft | 500 kts | 95° |
| 2026-04-20 15:02 | 48.22363 | 10.49036 | 35056 ft | 501 kts | 95° |
| 2026-04-20 15:02 | 48.21443 | 10.59411 | 35047 ft | 502 kts | 95° |
| 2026-04-20 15:03 | 48.20511 | 10.69790 | 35043 ft | 503 kts | 95° |
| 2026-04-20 15:03 | 48.19573 | 10.80181 | 35063 ft | 504 kts | 95° |
| 2026-04-20 15:04 | 48.18631 | 10.90589 | 35053 ft | 504 kts | 95° |
| 2026-04-20 15:04 | 48.17665 | 11.01005 | 35052 ft | 505 kts | 95° |
| 2026-04-20 15:05 | 48.16689 | 11.11432 | 35056 ft | 505 kts | 95° |
| 2026-04-20 15:05 | 48.15710 | 11.21846 | 35064 ft | 505 kts | 95° |
| 2026-04-20 15:06 | 48.14726 | 11.32257 | 35048 ft | 505 kts | 96° |
| 2026-04-20 15:06 | 48.13737 | 11.42595 | 35050 ft | 505 kts | 96° |
| 2026-04-20 15:07 | 48.12732 | 11.53003 | 35053 ft | 505 kts | 96° |
| 2026-04-20 15:07 | 48.11714 | 11.63401 | 35065 ft | 505 kts | 96° |
| 2026-04-20 15:08 | 48.10679 | 11.73806 | 35060 ft | 505 kts | 96° |
| 2026-04-20 15:08 | 48.09638 | 11.84197 | 35054 ft | 505 kts | 96° |
| 2026-04-20 15:09 | 48.08593 | 11.94591 | 35053 ft | 505 kts | 96° |
| 2026-04-20 15:09 | 48.07545 | 12.04978 | 35063 ft | 505 kts | 96° |
| 2026-04-20 15:10 | 48.06485 | 12.15351 | 35056 ft | 505 kts | 96° |
| 2026-04-20 15:10 | 48.05407 | 12.25724 | 35058 ft | 505 kts | 96° |
| 2026-04-20 15:11 | 48.04327 | 12.36023 | 35052 ft | 505 kts | 96° |
| 2026-04-20 15:11 | 48.03241 | 12.46382 | 35055 ft | 505 kts | 96° |
| 2026-04-20 15:12 | 48.02144 | 12.56749 | 35055 ft | 505 kts | 97° |
| 2026-04-20 15:12 | 48.01037 | 12.67110 | 35062 ft | 505 kts | 97° |
| 2026-04-20 15:13 | 47.99917 | 12.77467 | 35056 ft | 505 kts | 97° |
| 2026-04-20 15:13 | 47.98783 | 12.87824 | 35064 ft | 506 kts | 97° |
| 2026-04-20 15:14 | 47.97638 | 12.98186 | 35056 ft | 506 kts | 97° |
| 2026-04-20 15:14 | 47.96490 | 13.08556 | 35055 ft | 507 kts | 97° |
| 2026-04-20 15:15 | 47.95328 | 13.18931 | 35054 ft | 507 kts | 97° |
| 2026-04-20 15:15 | 47.94160 | 13.29297 | 35070 ft | 507 kts | 97° |
| 2026-04-20 15:16 | 47.92978 | 13.39663 | 35063 ft | 507 kts | 97° |
| 2026-04-20 15:16 | 47.91882 | 13.49957 | 35055 ft | 505 kts | 91° |
| 2026-04-20 15:17 | 47.91769 | 13.60382 | 35057 ft | 503 kts | 86° |
| 2026-04-20 15:17 | 47.91750 | 13.65602 | 34928 ft | 504 kts | 86° |
| 2026-04-20 15:17 | 47.91724 | 13.70819 | 34575 ft | 503 kts | 86° |
| 2026-04-20 15:17 | 47.91693 | 13.76042 | 33841 ft | 504 kts | 86° |
| 2026-04-20 15:18 | 47.91659 | 13.81254 | 33136 ft | 502 kts | 86° |
| 2026-04-20 15:18 | 47.91625 | 13.86464 | 32571 ft | 504 kts | 86° |
| 2026-04-20 15:18 | 47.91593 | 13.91705 | 32044 ft | 506 kts | 86° |
| 2026-04-20 15:18 | 47.91557 | 13.96949 | 31499 ft | 505 kts | 86° |
| 2026-04-20 15:19 | 47.91517 | 14.02177 | 30950 ft | 504 kts | 86° |
| 2026-04-20 15:19 | 47.91473 | 14.07402 | 30406 ft | 503 kts | 86° |
| 2026-04-20 15:19 | 47.91429 | 14.12620 | 29834 ft | 503 kts | 86° |
| 2026-04-20 15:19 | 47.91381 | 14.17815 | 29289 ft | 499 kts | 87° |
| 2026-04-20 15:20 | 47.91330 | 14.22962 | 28751 ft | 495 kts | 87° |
| 2026-04-20 15:20 | 47.91278 | 14.28005 | 28231 ft | 491 kts | 87° |
| 2026-04-20 15:20 | 47.91225 | 14.33063 | 27706 ft | 486 kts | 87° |
| 2026-04-20 15:20 | 47.91170 | 14.38075 | 27166 ft | 481 kts | 88° |
| 2026-04-20 15:21 | 47.91114 | 14.43034 | 26663 ft | 477 kts | 88° |
| 2026-04-20 15:21 | 47.91057 | 14.47936 | 26161 ft | 470 kts | 88° |
| 2026-04-20 15:21 | 47.91001 | 14.52779 | 25657 ft | 466 kts | 88° |
| 2026-04-20 15:21 | 47.90945 | 14.57582 | 25156 ft | 462 kts | 89° |
| 2026-04-20 15:22 | 47.90885 | 14.62346 | 24665 ft | 458 kts | 89° |
| 2026-04-20 15:22 | 47.90822 | 14.67071 | 24172 ft | 453 kts | 89° |
| 2026-04-20 15:22 | 47.90755 | 14.71747 | 23695 ft | 449 kts | 89° |
| 2026-04-20 15:22 | 47.90683 | 14.76374 | 23153 ft | 445 kts | 89° |
| 2026-04-20 15:23 | 47.90612 | 14.80950 | 22689 ft | 439 kts | 89° |
| 2026-04-20 15:23 | 47.90545 | 14.85414 | 22231 ft | 434 kts | 89° |
| 2026-04-20 15:23 | 47.90479 | 14.89878 | 21762 ft | 429 kts | 90° |
| 2026-04-20 15:23 | 47.90412 | 14.94299 | 21304 ft | 425 kts | 90° |
| 2026-04-20 15:24 | 47.90346 | 14.98680 | 20846 ft | 421 kts | 90° |
| 2026-04-20 15:24 | 47.90278 | 15.03023 | 20404 ft | 417 kts | 90° |
| 2026-04-20 15:24 | 47.90205 | 15.07313 | 19956 ft | 412 kts | 90° |
| 2026-04-20 15:24 | 47.90131 | 15.11560 | 19510 ft | 408 kts | 90° |
| 2026-04-20 15:25 | 47.90055 | 15.15769 | 19075 ft | 405 kts | 91° |
| 2026-04-20 15:25 | 47.89976 | 15.19934 | 18634 ft | 401 kts | 90° |
| 2026-04-20 15:25 | 47.89898 | 15.24069 | 18200 ft | 396 kts | 91° |
| 2026-04-20 15:25 | 47.89822 | 15.28157 | 17752 ft | 393 kts | 91° |
| 2026-04-20 15:26 | 47.89745 | 15.32199 | 17334 ft | 388 kts | 91° |
| 2026-04-20 15:26 | 47.89666 | 15.36199 | 16922 ft | 385 kts | 91° |
| 2026-04-20 15:26 | 47.89590 | 15.40158 | 16501 ft | 380 kts | 91° |
| 2026-04-20 15:26 | 47.89516 | 15.44066 | 16115 ft | 376 kts | 91° |
| 2026-04-20 15:27 | 47.89374 | 15.47941 | 15711 ft | 373 kts | 97° |
| 2026-04-20 15:27 | 47.88844 | 15.51708 | 15317 ft | 370 kts | 104° |
| 2026-04-20 15:27 | 47.88221 | 15.55412 | 14927 ft | 368 kts | 104° |
| 2026-04-20 15:27 | 47.87601 | 15.59101 | 14529 ft | 365 kts | 104° |
| 2026-04-20 15:28 | 47.86989 | 15.62756 | 14145 ft | 363 kts | 104° |
| 2026-04-20 15:28 | 47.86383 | 15.66387 | 13755 ft | 360 kts | 104° |
| 2026-04-20 15:28 | 47.85779 | 15.69990 | 13350 ft | 357 kts | 104° |
| 2026-04-20 15:28 | 47.85187 | 15.73519 | 12967 ft | 355 kts | 104° |
| 2026-04-20 15:29 | 47.84591 | 15.77068 | 12600 ft | 353 kts | 104° |
| 2026-04-20 15:29 | 47.83995 | 15.80607 | 12232 ft | 351 kts | 104° |
| 2026-04-20 15:29 | 47.83405 | 15.84113 | 11861 ft | 347 kts | 104° |
| 2026-04-20 15:29 | 47.82820 | 15.87584 | 11494 ft | 344 kts | 104° |
| 2026-04-20 15:30 | 47.82237 | 15.91024 | 11120 ft | 341 kts | 104° |
| 2026-04-20 15:30 | 47.81655 | 15.94435 | 10769 ft | 339 kts | 104° |
| 2026-04-20 15:30 | 47.81074 | 15.97819 | 10410 ft | 337 kts | 104° |
| 2026-04-20 15:30 | 47.80500 | 16.01161 | 10148 ft | 329 kts | 104° |
| 2026-04-20 15:31 | 47.79944 | 16.04393 | 9969 ft | 318 kts | 104° |
| 2026-04-20 15:31 | 47.79401 | 16.07548 | 9606 ft | 313 kts | 104° |
| 2026-04-20 15:31 | 47.78866 | 16.10645 | 9458 ft | 309 kts | 104° |
| 2026-04-20 15:31 | 47.78333 | 16.13740 | 9227 ft | 308 kts | 104° |
| 2026-04-20 15:32 | 47.77804 | 16.16815 | 8928 ft | 306 kts | 104° |
| 2026-04-20 15:32 | 47.77315 | 16.19881 | 8623 ft | 304 kts | 97° |
| 2026-04-20 15:32 | 47.77264 | 16.22987 | 8328 ft | 299 kts | 81° |
| 2026-04-20 15:32 | 47.77747 | 16.25960 | 8029 ft | 294 kts | 65° |
| 2026-04-20 15:33 | 47.78669 | 16.28633 | 7737 ft | 290 kts | 56° |
| 2026-04-20 15:33 | 47.79668 | 16.31226 | 7446 ft | 288 kts | 57° |
| 2026-04-20 15:33 | 47.80652 | 16.33800 | 7159 ft | 285 kts | 57° |
| 2026-04-20 15:33 | 47.81627 | 16.36358 | 6861 ft | 284 kts | 56° |
| 2026-04-20 15:34 | 47.82593 | 16.38902 | 6581 ft | 281 kts | 57° |
| 2026-04-20 15:34 | 47.83543 | 16.41413 | 6307 ft | 276 kts | 56° |
| 2026-04-20 15:34 | 47.84460 | 16.43848 | 6029 ft | 263 kts | 57° |
| 2026-04-20 15:34 | 47.85342 | 16.46189 | 5622 ft | 256 kts | 56° |
| 2026-04-20 15:35 | 47.86193 | 16.48436 | 5227 ft | 250 kts | 56° |
| 2026-04-20 15:35 | 47.87044 | 16.50678 | 4813 ft | 247 kts | 54° |
| 2026-04-20 15:35 | 47.87871 | 16.52862 | 4403 ft | 243 kts | 55° |
| 2026-04-20 15:35 | 47.88696 | 16.55052 | 3995 ft | 243 kts | 56° |
| 2026-04-20 15:36 | 47.89522 | 16.57238 | 3591 ft | 241 kts | 56° |
| 2026-04-20 15:36 | 47.90326 | 16.59369 | 3358 ft | 229 kts | 56° |
| 2026-04-20 15:36 | 47.91090 | 16.61401 | 3185 ft | 221 kts | 55° |
| 2026-04-20 15:36 | 47.92023 | 16.63148 | 3064 ft | 212 kts | 34° |
| 2026-04-20 15:37 | 47.93236 | 16.64280 | 3007 ft | 198 kts | 15° |
| 2026-04-20 15:37 | 47.94522 | 16.64752 | 3006 ft | 186 kts | 0° |
| 2026-04-20 15:37 | 47.95777 | 16.64635 | 3006 ft | 179 kts | 344° |
| 2026-04-20 15:37 | 47.96925 | 16.64161 | 2999 ft | 164 kts | 342° |
| 2026-04-20 15:38 | 47.98001 | 16.63711 | 2830 ft | 158 kts | 341° |
| 2026-04-20 15:38 | 47.99040 | 16.63275 | 2635 ft | 153 kts | 341° |
| 2026-04-20 15:38 | 48.00044 | 16.62853 | 2450 ft | 146 kts | 340° |
| 2026-04-20 15:38 | 48.00995 | 16.62453 | 2258 ft | 140 kts | 340° |
| 2026-04-20 15:39 | 48.01927 | 16.62060 | 2068 ft | 139 kts | 341° |
| 2026-04-20 15:39 | 48.02850 | 16.61671 | 1892 ft | 138 kts | 341° |
| 2026-04-20 15:39 | 48.03770 | 16.61283 | 1714 ft | 137 kts | 342° |
| 2026-04-20 15:39 | 48.04695 | 16.60893 | 1506 ft | 139 kts | 342° |
| 2026-04-20 15:40 | 48.05629 | 16.60500 | 1321 ft | 141 kts | 342° |
| 2026-04-20 15:40 | 48.06606 | 16.60086 | 1123 ft | 147 kts | 343° |
| 2026-04-20 15:40 | 48.07584 | 16.59681 | 892 ft | 146 kts | 343° |
| 2026-04-20 15:40 | 48.08564 | 16.59257 | 704 ft | 148 kts | 344° |
| 2026-04-20 15:41 | 48.09532 | 16.58852 | 622 ft | 134 kts | 344° |
| 2026-04-20 15:41 | 48.10306 | 16.58524 | 621 ft | 101 kts | 344° |
| 2026-04-20 15:41 | 48.10891 | 16.58279 | 617 ft | 50 kts | 345° |
| 2026-04-20 15:41 | 48.11004 | 16.58159 | 618 ft | 17 kts | 307° |
| 2026-04-20 15:42 | 48.11067 | 16.57994 | 613 ft | 19 kts | 296° |
| 2026-04-20 15:42 | 48.11130 | 16.57802 | 617 ft | 22 kts | 296° |
| 2026-04-20 15:42 | 48.11199 | 16.57591 | 617 ft | 24 kts | 296° |
| 2026-04-20 15:42 | 48.11274 | 16.57365 | 613 ft | 21 kts | 296° |
| 2026-04-20 15:43 | 48.11340 | 16.57351 | 610 ft | 11 kts | 26° |
| 2026-04-20 15:43 | 48.11418 | 16.57388 | 615 ft | 12 kts | 336° |
| 2026-04-20 15:43 | 48.11465 | 16.57270 | 620 ft | 15 kts | 296° |
| 2026-04-20 15:43 | 48.11513 | 16.57122 | 610 ft | 17 kts | 296° |
| 2026-04-20 15:44 | 48.11567 | 16.56954 | 614 ft | 19 kts | 296° |
| 2026-04-20 15:44 | 48.11630 | 16.56762 | 611 ft | 22 kts | 296° |
| 2026-04-20 15:44 | 48.11672 | 16.56634 | 617 ft | 2 kts | 295° |
| 2026-04-20 15:44 | 48.11669 | 16.56611 | 610 ft | 4 kts | 239° |
| 2026-04-20 15:45 | 48.11648 | 16.56595 | 615 ft | 3 kts | 205° |
| 2026-04-20 15:45 | 48.11624 | 16.56578 | 618 ft | 5 kts | 206° |
| 2026-04-20 15:45 | 48.11612 | 16.56569 | 610 ft | 1 kts | 206° |
| 2026-04-20 15:45 | 48.11611 | 16.56569 | 610 ft | 0 kts | 206° |